地図

経路データ

SID SEASON NUMBER BASIN SUBBASIN NAME ISO_TIME NATURE LAT LON WMO_WIND WMO_PRES WMO_AGENCY TRACK_TYPE DIST2LAND LANDFALL IFLAG USA_AGENCY USA_ATCF_ID USA_LAT USA_LON USA_RECORD USA_STATUS USA_WIND USA_PRES USA_SSHS USA_R34_NE USA_R34_SE USA_R34_SW USA_R34_NW USA_R50_NE USA_R50_SE USA_R50_SW USA_R50_NW USA_R64_NE USA_R64_SE USA_R64_SW USA_R64_NW USA_POCI USA_ROCI USA_RMW USA_EYE TOKYO_LAT TOKYO_LON TOKYO_GRADE TOKYO_WIND TOKYO_PRES TOKYO_R50_DIR TOKYO_R50_LONG TOKYO_R50_SHORT TOKYO_R30_DIR TOKYO_R30_LONG TOKYO_R30_SHORT TOKYO_LAND CMA_LAT CMA_LON CMA_CAT CMA_WIND CMA_PRES HKO_LAT HKO_LON HKO_CAT HKO_WIND HKO_PRES NEWDELHI_LAT NEWDELHI_LON NEWDELHI_GRADE NEWDELHI_WIND NEWDELHI_PRES NEWDELHI_CI NEWDELHI_DP NEWDELHI_POCI REUNION_LAT REUNION_LON REUNION_TYPE REUNION_WIND REUNION_PRES REUNION_TNUM REUNION_CI REUNION_RMW REUNION_R34_NE REUNION_R34_SE REUNION_R34_SW REUNION_R34_NW REUNION_R50_NE REUNION_R50_SE REUNION_R50_SW REUNION_R50_NW REUNION_R64_NE REUNION_R64_SE REUNION_R64_SW REUNION_R64_NW BOM_LAT BOM_LON BOM_TYPE BOM_WIND BOM_PRES BOM_TNUM BOM_CI BOM_RMW BOM_R34_NE BOM_R34_SE BOM_R34_SW BOM_R34_NW BOM_R50_NE BOM_R50_SE BOM_R50_SW BOM_R50_NW BOM_R64_NE BOM_R64_SE BOM_R64_SW BOM_R64_NW BOM_ROCI BOM_POCI BOM_EYE BOM_POS_METHOD BOM_PRES_METHOD NADI_LAT NADI_LON NADI_CAT NADI_WIND NADI_PRES WELLINGTON_LAT WELLINGTON_LON WELLINGTON_WIND WELLINGTON_PRES DS824_LAT DS824_LON DS824_STAGE DS824_WIND DS824_PRES TD9636_LAT TD9636_LON TD9636_STAGE TD9636_WIND TD9636_PRES TD9635_LAT TD9635_LON TD9635_WIND TD9635_PRES TD9635_ROCI NEUMANN_LAT NEUMANN_LON NEUMANN_CLASS NEUMANN_WIND NEUMANN_PRES MLC_LAT MLC_LON MLC_CLASS MLC_WIND MLC_PRES USA_GUST BOM_GUST BOM_GUST_PER REUNION_GUST REUNION_GUST_PER USA_SEAHGT USA_SEARAD_NE USA_SEARAD_SE USA_SEARAD_SW USA_SEARAD_NW STORM_SPEED STORM_DIR
1858266N22286 1858 15 NA NA NOT_NAMED 1858-09-22 12:00:00 TS 21.9000 -74.0000 50 hurdat_atl main 94 94 O_____________ hurdat_atl AL051858 21.9000 -74.0000 TS 50 0 13 2
1858266N22286 1858 15 NA NA NOT_NAMED 1858-09-22 15:00:00 TS 22.5425 -74.0000 main 159 159 P_____________ AL051858 22.5425 -74.0000 TS 50 0 13 1
1858266N22286 1858 15 NA NA NOT_NAMED 1858-09-22 18:00:00 TS 23.2000 -74.0000 50 hurdat_atl main 236 236 O_____________ hurdat_atl AL051858 23.2000 -74.0000 TS 50 0 14 0
1858266N22286 1858 15 NA NA NOT_NAMED 1858-09-22 21:00:00 TS 23.8850 -74.0000 main 312 312 P_____________ AL051858 23.8850 -74.0000 TS 55 0 14 0
1858266N22286 1858 15 NA NA NOT_NAMED 1858-09-23 00:00:00 TS 24.6000 -74.0000 60 hurdat_atl main 374 374 O_____________ hurdat_atl AL051858 24.6000 -74.0000 TS 60 0 14 0
1858266N22286 1858 15 NA NA NOT_NAMED 1858-09-23 03:00:00 TS 25.3200 -74.0000 main 383 383 P_____________ AL051858 25.3200 -74.0000 TS 60 0 15 0
1858266N22286 1858 15 NA NA NOT_NAMED 1858-09-23 06:00:00 TS 26.1000 -74.0000 60 hurdat_atl main 412 412 O_____________ hurdat_atl AL051858 26.1000 -74.0000 TS 60 0 17 0
1858266N22286 1858 15 NA NA NOT_NAMED 1858-09-23 09:00:00 TS 27.0075 -73.9927 main 452 452 P_____________ AL051858 27.0075 -73.9927 TS 65 1 18 1
1858266N22286 1858 15 NA NA NOT_NAMED 1858-09-23 12:00:00 TS 27.9000 -74.0000 70 hurdat_atl main 505 505 O_____________ hurdat_atl AL051858 27.9000 -74.0000 HU 70 1 16 358
1858266N22286 1858 15 NA NA NOT_NAMED 1858-09-23 15:00:00 TS 28.6300 -74.0498 main 556 556 P_____________ AL051858 28.6300 -74.0498 HU 70 1 14 356
1858266N22286 1858 15 NA NA NOT_NAMED 1858-09-23 18:00:00 TS 29.3000 -74.1000 70 hurdat_atl main 606 569 O_____________ hurdat_atl AL051858 29.3000 -74.1000 HU 70 1 14 358
1858266N22286 1858 15 NA NA NOT_NAMED 1858-09-23 21:00:00 TS 29.9925 -74.1150 main 569 499 P_____________ AL051858 29.9925 -74.1150 HU 70 1 14 0
1858266N22286 1858 15 NA NA NOT_NAMED 1858-09-24 00:00:00 TS 30.7000 -74.1000 70 hurdat_atl main 499 430 O_____________ hurdat_atl AL051858 30.7000 -74.1000 HU 70 1 15 1
1858266N22286 1858 15 NA NA NOT_NAMED 1858-09-24 03:00:00 TS 31.4725 -74.0650 main 420 362 P_____________ AL051858 31.4725 -74.0650 HU 70 1 15 3
1858266N22286 1858 15 NA NA NOT_NAMED 1858-09-24 06:00:00 TS 32.2000 -74.0000 70 hurdat_atl main 362 320 O_____________ hurdat_atl AL051858 32.2000 -74.0000 HU 70 1 14 6
1858266N22286 1858 15 NA NA NOT_NAMED 1858-09-24 09:00:00 TS 32.8175 -73.9002 main 320 290 P_____________ AL051858 32.8175 -73.9002 HU 75 1 11 9
1858266N22286 1858 15 NA NA NOT_NAMED 1858-09-24 12:00:00 TS 33.3000 -73.8000 80 hurdat_atl main 290 271 O_____________ hurdat_atl AL051858 33.3000 -73.8000 HU 80 1 8 9
1858266N22286 1858 15 NA NA NOT_NAMED 1858-09-24 15:00:00 TS 33.6375 -73.7423 main 279 262 P_____________ AL051858 33.6375 -73.7423 HU 80 1 6 8
1858266N22286 1858 15 NA NA NOT_NAMED 1858-09-24 18:00:00 TS 33.9000 -73.7000 80 hurdat_atl main 262 239 O_____________ hurdat_atl AL051858 33.9000 -73.7000 HU 80 1 6 7
1858266N22286 1858 15 NA NA NOT_NAMED 1858-09-24 21:00:00 TS 34.1925 -73.6574 main 239 225 P_____________ AL051858 34.1925 -73.6574 HU 80 1 6 8
1858266N22286 1858 15 NA NA NOT_NAMED 1858-09-25 00:00:00 TS 34.5000 -73.6000 80 hurdat_atl main 225 211 O_____________ hurdat_atl AL051858 34.5000 -73.6000 HU 80 1 7 10
1858266N22286 1858 15 NA NA NOT_NAMED 1858-09-25 03:00:00 TS 34.8425 -73.5149 main 212 201 P_____________ AL051858 34.8425 -73.5149 HU 80 1 7 13
1858266N22286 1858 15 NA NA NOT_NAMED 1858-09-25 06:00:00 TS 35.2000 -73.4000 80 hurdat_atl main 201 197 O_____________ hurdat_atl AL051858 35.2000 -73.4000 HU 80 1 7 16
1858266N22286 1858 15 NA NA NOT_NAMED 1858-09-25 09:00:00 TS 35.5574 -73.2723 main 199 199 P_____________ AL051858 35.5574 -73.2723 HU 80 1 7 19
1858266N22286 1858 15 NA NA NOT_NAMED 1858-09-25 12:00:00 TS 35.9000 -73.1000 80 hurdat_atl main 216 216 O_____________ hurdat_atl AL051858 35.9000 -73.1000 HU 80 1 7 27
1858266N22286 1858 15 NA NA NOT_NAMED 1858-09-25 15:00:00 TS 36.2102 -72.8679 main 237 237 P_____________ AL051858 36.2102 -72.8679 HU 80 1 7 34
1858266N22286 1858 15 NA NA NOT_NAMED 1858-09-25 18:00:00 TS 36.5000 -72.6000 80 hurdat_atl main 271 O_____________ hurdat_atl AL051858 36.5000 -72.6000 HU 80 1 7 37

IBTrACS Databaseについて

本データベースは、米国NOAAが公開する1842年以降の世界の熱帯低気圧のベストトラックデータアーカイブInternational Best Track Archive for Climate Stewardship (IBTrACS)を、ウェブで閲覧しやすい形式に変換したものです。

最終更新日:2021-10-19